(°C)
21°
21°
21°
20°
18°
16°
15°
(°C)
19°
18°
18°
18°
16°
14°
13°
ЗЮЗ
ЗЮЗ
З
ЮЗ
ИЮИ
ИЮИ
ЮЮИ
(km/h)
6-15
6-15
5-15
3-11
5-14
5-16
5-13
(mm)
0
0
0
0
0
0
0
(%)
0
0
0
0
0
0
0

Издигане на слънцето

/ 38.9°
sun-icon
UV 9
05:46
20:35
Намаляващ полумесец (324°)
04:51
17:10

METAR за Инсбрук (LOWI)

Час Условия Температура/
Точка на оросяване
Вятър Видимост Времето Облаци Налягане Промяна Raw
VFR 21°C / -1°C variable 4kt >10km - Clouds and Visibility OK 1015 No Significant change LOWI 081420Z VRB04KT CAVOK 21/M01 Q1015 NOSIG
VFR 20°C / -3°C variable 3kt >10km - Clouds and Visibility OK 1015 No Significant change LOWI 081350Z VRB03KT CAVOK 20/M03 Q1015 NOSIG
VFR 20°C / -2°C variable 2kt >10km - Clouds and Visibility OK 1016 No Significant change LOWI 081320Z VRB02KT CAVOK 20/M02 Q1016 NOSIG
VFR 20°C / -2°C variable 1kt >10km - Clouds and Visibility OK 1016 No Significant change LOWI 081250Z VRB01KT CAVOK 20/M02 Q1016 NOSIG
VFR 19°C / -1°C variable 2kt >10km - Clouds and Visibility OK 1017 No Significant change LOWI 081220Z VRB02KT CAVOK 19/M01 Q1017 NOSIG
VFR 17°C / -2°C variable 3kt >10km - Clouds and Visibility OK 1017 No Significant change LOWI 081150Z VRB03KT CAVOK 17/M02 Q1017 NOSIG
VFR 17°C / 0°C variable 2kt >10km - Clouds and Visibility OK 1018 No Significant change LOWI 081120Z VRB02KT CAVOK 17/M00 Q1018 NOSIG
VFR 15°C / 0°C variable 3kt >10km - Clouds and Visibility OK 1018 No Significant change LOWI 081050Z VRB03KT CAVOK 15/00 Q1018 NOSIG
VFR 14°C / 0°C variable 3kt >10km - Clouds and Visibility OK 1019 No Significant change LOWI 081020Z VRB03KT CAVOK 14/M00 Q1019 NOSIG
VFR 13°C / 1°C variable 3kt >10km - Clouds and Visibility OK 1019 No Significant change LOWI 080950Z VRB03KT CAVOK 13/01 Q1019 NOSIG
VFR 12°C / -1°C variable 2kt >10km - Clouds and Visibility OK 1020 No Significant change LOWI 080920Z VRB02KT CAVOK 12/M01 Q1020 NOSIG
VFR 11°C / 0°C variable 3kt >10km - Clouds and Visibility OK 1020 No Significant change LOWI 080850Z VRB03KT CAVOK 11/M00 Q1020 NOSIG
VFR 9°C / -1°C variable 2kt >10km - Clouds and Visibility OK 1020 No Significant change LOWI 080820Z VRB02KT CAVOK 09/M01 Q1020 NOSIG
VFR 8°C / -1°C 240º variable 160º to 290º 3kt >10km - Clouds and Visibility OK 1021 No Significant change LOWI 080750Z 24003KT 160V290 CAVOK 08/M01 Q1021 NOSIG
VFR 7°C / 0°C 250º variable 210º to 310º 4kt >10km - Clouds and Visibility OK 1021 No Significant change LOWI 080720Z 25004KT 210V310 CAVOK 07/M00 Q1021 NOSIG
VFR 6°C / 0°C 250º 5kt >10km - Clouds and Visibility OK 1021 No Significant change LOWI 080650Z 25005KT CAVOK 06/00 Q1021 NOSIG
VFR 4°C / 0°C 260º 4kt >10km - Clouds and Visibility OK 1022 No Significant change LOWI 080620Z 26004KT CAVOK 04/M00 Q1022 NOSIG
VFR 3°C / 0°C 280º 4kt >10km - Clouds and Visibility OK 1022 No Significant change LOWI 080550Z 28004KT CAVOK 03/M00 Q1022 NOSIG
VFR 2°C / 0°C 260º 3kt >10km - Clouds and Visibility OK 1022 No Significant change LOWI 080520Z 26003KT CAVOK 02/M00 Q1022 NOSIG
VFR 2°C / -1°C 270º 2kt >10km - Clouds and Visibility OK 1022 No Significant change LOWI 080450Z 27002KT CAVOK 02/M01 Q1022 NOSIG
VFR 1°C / -2°C 260º 3kt >10km - Clouds and Visibility OK 1022 No Significant change LOWI 080420Z 26003KT CAVOK 01/M02 Q1022 NOSIG
VFR 0°C / -2°C variable 1kt >10km - Clouds and Visibility OK 1022 No Significant change LOWI 080350Z VRB01KT CAVOK 00/M02 Q1022 NOSIG
VFR 1°C / -2°C 280º variable 250º to 310º 3kt >10km - Clear 1022 - LOWI 080320Z AUTO 28003KT 250V310 9999 NCD 01/M02 Q1022
VFR 1°C / -2°C variable 2kt >10km - Clear 1022 - LOWI 080250Z AUTO VRB02KT 9999 NCD 01/M02 Q1022

VFR

21°C / -1°C

[Още]
Вятър variable 4kt
Видимост >10km
Времето -
Облаци Clouds and Visibility OK
Налягане 1015
Промяна No Significant change
Raw LOWI 081420Z VRB04KT CAVOK 21/M01 Q1015 NOSIG

VFR

20°C / -3°C

[Още]
Вятър variable 3kt
Видимост >10km
Времето -
Облаци Clouds and Visibility OK
Налягане 1015
Промяна No Significant change
Raw LOWI 081350Z VRB03KT CAVOK 20/M03 Q1015 NOSIG

VFR

20°C / -2°C

[Още]
Вятър variable 2kt
Видимост >10km
Времето -
Облаци Clouds and Visibility OK
Налягане 1016
Промяна No Significant change
Raw LOWI 081320Z VRB02KT CAVOK 20/M02 Q1016 NOSIG

VFR

20°C / -2°C

[Още]
Вятър variable 1kt
Видимост >10km
Времето -
Облаци Clouds and Visibility OK
Налягане 1016
Промяна No Significant change
Raw LOWI 081250Z VRB01KT CAVOK 20/M02 Q1016 NOSIG

VFR

19°C / -1°C

[Още]
Вятър variable 2kt
Видимост >10km
Времето -
Облаци Clouds and Visibility OK
Налягане 1017
Промяна No Significant change
Raw LOWI 081220Z VRB02KT CAVOK 19/M01 Q1017 NOSIG

VFR

17°C / -2°C

[Още]
Вятър variable 3kt
Видимост >10km
Времето -
Облаци Clouds and Visibility OK
Налягане 1017
Промяна No Significant change
Raw LOWI 081150Z VRB03KT CAVOK 17/M02 Q1017 NOSIG

VFR

17°C / 0°C

[Още]
Вятър variable 2kt
Видимост >10km
Времето -
Облаци Clouds and Visibility OK
Налягане 1018
Промяна No Significant change
Raw LOWI 081120Z VRB02KT CAVOK 17/M00 Q1018 NOSIG

VFR

15°C / 0°C

[Още]
Вятър variable 3kt
Видимост >10km
Времето -
Облаци Clouds and Visibility OK
Налягане 1018
Промяна No Significant change
Raw LOWI 081050Z VRB03KT CAVOK 15/00 Q1018 NOSIG

VFR

14°C / 0°C

[Още]
Вятър variable 3kt
Видимост >10km
Времето -
Облаци Clouds and Visibility OK
Налягане 1019
Промяна No Significant change
Raw LOWI 081020Z VRB03KT CAVOK 14/M00 Q1019 NOSIG

VFR

13°C / 1°C

[Още]
Вятър variable 3kt
Видимост >10km
Времето -
Облаци Clouds and Visibility OK
Налягане 1019
Промяна No Significant change
Raw LOWI 080950Z VRB03KT CAVOK 13/01 Q1019 NOSIG

VFR

12°C / -1°C

[Още]
Вятър variable 2kt
Видимост >10km
Времето -
Облаци Clouds and Visibility OK
Налягане 1020
Промяна No Significant change
Raw LOWI 080920Z VRB02KT CAVOK 12/M01 Q1020 NOSIG

VFR

11°C / 0°C

[Още]
Вятър variable 3kt
Видимост >10km
Времето -
Облаци Clouds and Visibility OK
Налягане 1020
Промяна No Significant change
Raw LOWI 080850Z VRB03KT CAVOK 11/M00 Q1020 NOSIG

VFR

9°C / -1°C

[Още]
Вятър variable 2kt
Видимост >10km
Времето -
Облаци Clouds and Visibility OK
Налягане 1020
Промяна No Significant change
Raw LOWI 080820Z VRB02KT CAVOK 09/M01 Q1020 NOSIG

VFR

8°C / -1°C

[Още]
Вятър 240º variable 160º to 290º 3kt
Видимост >10km
Времето -
Облаци Clouds and Visibility OK
Налягане 1021
Промяна No Significant change
Raw LOWI 080750Z 24003KT 160V290 CAVOK 08/M01 Q1021 NOSIG

VFR

7°C / 0°C

[Още]
Вятър 250º variable 210º to 310º 4kt
Видимост >10km
Времето -
Облаци Clouds and Visibility OK
Налягане 1021
Промяна No Significant change
Raw LOWI 080720Z 25004KT 210V310 CAVOK 07/M00 Q1021 NOSIG

VFR

6°C / 0°C

[Още]
Вятър 250º 5kt
Видимост >10km
Времето -
Облаци Clouds and Visibility OK
Налягане 1021
Промяна No Significant change
Raw LOWI 080650Z 25005KT CAVOK 06/00 Q1021 NOSIG

VFR

4°C / 0°C

[Още]
Вятър 260º 4kt
Видимост >10km
Времето -
Облаци Clouds and Visibility OK
Налягане 1022
Промяна No Significant change
Raw LOWI 080620Z 26004KT CAVOK 04/M00 Q1022 NOSIG

VFR

3°C / 0°C

[Още]
Вятър 280º 4kt
Видимост >10km
Времето -
Облаци Clouds and Visibility OK
Налягане 1022
Промяна No Significant change
Raw LOWI 080550Z 28004KT CAVOK 03/M00 Q1022 NOSIG

VFR

2°C / 0°C

[Още]
Вятър 260º 3kt
Видимост >10km
Времето -
Облаци Clouds and Visibility OK
Налягане 1022
Промяна No Significant change
Raw LOWI 080520Z 26003KT CAVOK 02/M00 Q1022 NOSIG

VFR

2°C / -1°C

[Още]
Вятър 270º 2kt
Видимост >10km
Времето -
Облаци Clouds and Visibility OK
Налягане 1022
Промяна No Significant change
Raw LOWI 080450Z 27002KT CAVOK 02/M01 Q1022 NOSIG

VFR

1°C / -2°C

[Още]
Вятър 260º 3kt
Видимост >10km
Времето -
Облаци Clouds and Visibility OK
Налягане 1022
Промяна No Significant change
Raw LOWI 080420Z 26003KT CAVOK 01/M02 Q1022 NOSIG

VFR

0°C / -2°C

[Още]
Вятър variable 1kt
Видимост >10km
Времето -
Облаци Clouds and Visibility OK
Налягане 1022
Промяна No Significant change
Raw LOWI 080350Z VRB01KT CAVOK 00/M02 Q1022 NOSIG

VFR

1°C / -2°C

[Още]
Вятър 280º variable 250º to 310º 3kt
Видимост >10km
Времето -
Облаци Clear
Налягане 1022
Промяна -
Raw LOWI 080320Z AUTO 28003KT 250V310 9999 NCD 01/M02 Q1022

VFR

1°C / -2°C

[Още]
Вятър variable 2kt
Видимост >10km
Времето -
Облаци Clear
Налягане 1022
Промяна -
Raw LOWI 080250Z AUTO VRB02KT 9999 NCD 01/M02 Q1022

TAF за Инсбрук (LOWI)

From till


Maximum Temperature 24ºC on . Minimum Temperature 6ºC on .
From till Wind 80º 4kt. Visibility 10km or more. Nil Significant Cloud.
Temporarly from till Wind 100º 8kt.
Becoming from till Wind 270º 8kt. Visibility 10km or more. Nil Significant Cloud.
Becoming from till Wind 120º 12kt. Gust 25kt. Visibility 10km or more. Nil Significant Cloud.
Temporarly from till Wind 130º 22kt. Gust 35kt.

Raw: TAF LOWI 081115Z 0812/0912 08004KT CAVOK TX24/0912Z TN06/0904Z TEMPO 0813/0818 10008KT BECMG 0903/0905 27008KT BECMG 0908/0910 12012G25KT TEMPO 0909/0912 13022G35KT

Актуални сателитни и дъждовни снимки за Инсбрук, Австрия

  • Валежи:
  • <1 mm
  • 1-2 mm
  • 2-5 mm
  • >5 mm

Маркерът за локация е поставен върху Инсбрук. [Още]

Сателитното изображение в реално време съчетава видимата светлина през деня с инфрачервеното лъчение през нощта. През нощта изображението не е тъмно, тъй като инфрачервеното лъчение може да открива температурни разлики. За съжаление ниските облаци и мъглата са трудни за разграничаване от температурите на земята и затова могат да бъдат почти невидими през нощта. Сателитните изображения на Meteosat за Европа се актуализират в реално време на всеки 5 минути. Изображенията GOES-16/GOES-17 (Северна и Южна Америка) и Химавари (Азия) се актуализират на всеки 10 минути.

Валежите се изчисляват на база информация от радари и сателити. Нощните прогнози за валежи от сателити са с по-ниска прецизност от дневните прогнози. Оранжевите кръстове маркират локациите, на които са засечени светкавици (над Европа).

Всички права запазени 2021 EUMETSAT / meteoblue. Данни за светкавици, предоставени от nowcast.

Радар за Инсбрук

Маркерът за локация обозначава Инсбрук. Анимацията показва Радара за валежи за последния час, както и прогноза за 2h. Възможно е незначителните превалявания да не бъдат засечени от радара. Интензивността на валежите е представена в цветна скала от светлосиньо до тъмнолилаво.
Copyright 2021 Deutscher Wetterdienst / meteoblue.

Настояща метеорологична обстановка и предупреждения

EUMETNET – MeteoAlarm

pictomap

Източник: ZAMG

Възможни са времеви забавяния между този уебсайт и www.meteoalarm.eu За най-актуалните данни за нивата на предупреждение, моля изполвайте www.meteoalarm.eu.